sensor_id;sensor_type;location;lat;lon;timestamp;pressure;altitude;pressure_sealevel;temperature;humidity
80892;BME280;70343;51.530;5.050;2024-02-23T07:42:58;98947.19;;;5.96;100.00
80892;BME280;70343;51.530;5.050;2024-02-23T07:45:23;98945.19;;;6.04;100.00
80892;BME280;70343;51.530;5.050;2024-02-23T07:47:49;98934.78;;;6.17;100.00
80892;BME280;70343;51.530;5.050;2024-02-23T07:50:14;98931.16;;;6.18;100.00
80892;BME280;70343;51.530;5.050;2024-02-23T07:52:41;98920.44;;;6.15;100.00
80892;BME280;70343;51.530;5.050;2024-02-23T07:55:07;98911.19;;;6.32;100.00
80892;BME280;70343;51.530;5.050;2024-02-23T07:57:33;98923.94;;;6.34;100.00
80892;BME280;70343;51.530;5.050;2024-02-23T08:00:00;98918.53;;;6.42;100.00
80892;BME280;70343;51.530;5.050;2024-02-23T08:02:25;98919.09;;;6.44;100.00
80892;BME280;70343;51.530;5.050;2024-02-23T08:04:51;98929.72;;;6.36;100.00
80892;BME280;70343;51.530;5.050;2024-02-23T08:07:17;98919.53;;;6.34;100.00
80892;BME280;70343;51.530;5.050;2024-02-23T08:09:43;98921.25;;;6.53;100.00
80892;BME280;70343;51.530;5.050;2024-02-23T08:12:08;98920.66;;;6.51;100.00
80892;BME280;70343;51.530;5.050;2024-02-23T08:14:34;98925.00;;;6.57;100.00
80892;BME280;70343;51.530;5.050;2024-02-23T08:17:00;98918.66;;;6.53;100.00
80892;BME280;70343;51.530;5.050;2024-02-23T08:19:25;98914.63;;;6.57;100.00
80892;BME280;70343;51.530;5.050;2024-02-23T08:21:51;98927.50;;;6.70;100.00
80892;BME280;70343;51.530;5.050;2024-02-23T08:24:16;98910.53;;;6.74;100.00
80892;BME280;70343;51.530;5.050;2024-02-23T08:26:42;98910.09;;;6.77;100.00
80892;BME280;70343;51.530;5.050;2024-02-23T08:29:08;98913.94;;;6.93;100.00
80892;BME280;70343;51.530;5.050;2024-02-23T08:31:34;98914.31;;;6.96;100.00
80892;BME280;70343;51.530;5.050;2024-02-23T08:33:59;98905.06;;;7.07;100.00
80892;BME280;70343;51.530;5.050;2024-02-23T08:36:25;98917.59;;;6.85;100.00
80892;BME280;70343;51.530;5.050;2024-02-23T08:38:50;98901.34;;;6.78;100.00
80892;BME280;70343;51.530;5.050;2024-02-23T08:41:16;98912.38;;;6.92;100.00
80892;BME280;70343;51.530;5.050;2024-02-23T08:43:41;98899.06;;;6.88;100.00
80892;BME280;70343;51.530;5.050;2024-02-23T08:46:07;98905.97;;;6.70;100.00
80892;BME280;70343;51.530;5.050;2024-02-23T08:48:33;98911.25;;;6.81;100.00
80892;BME280;70343;51.530;5.050;2024-02-23T08:50:58;98902.09;;;6.79;100.00
80892;BME280;70343;51.530;5.050;2024-02-23T08:53:24;98921.72;;;6.93;100.00
80892;BME280;70343;51.530;5.050;2024-02-23T08:55:49;98914.88;;;6.80;100.00
80892;BME280;70343;51.530;5.050;2024-02-23T08:58:15;98927.56;;;6.88;100.00
80892;BME280;70343;51.530;5.050;2024-02-23T09:00:41;98928.56;;;6.87;100.00
80892;BME280;70343;51.530;5.050;2024-02-23T09:03:06;98933.00;;;6.80;100.00
80892;BME280;70343;51.530;5.050;2024-02-23T09:05:32;98944.59;;;6.71;100.00
80892;BME280;70343;51.530;5.050;2024-02-23T09:07:57;98942.41;;;6.75;100.00
80892;BME280;70343;51.530;5.050;2024-02-23T09:10:23;98956.94;;;6.76;100.00
80892;BME280;70343;51.530;5.050;2024-02-23T09:12:48;98949.03;;;6.95;100.00
80892;BME280;70343;51.530;5.050;2024-02-23T09:15:14;98947.41;;;6.94;100.00
80892;BME280;70343;51.530;5.050;2024-02-23T09:17:42;98943.28;;;6.62;100.00
80892;BME280;70343;51.530;5.050;2024-02-23T09:20:08;98951.38;;;6.72;100.00
80892;BME280;70343;51.530;5.050;2024-02-23T09:22:34;98935.34;;;6.57;100.00
80892;BME280;70343;51.530;5.050;2024-02-23T09:24:59;98938.94;;;6.56;100.00
80892;BME280;70343;51.530;5.050;2024-02-23T09:27:25;98937.03;;;6.39;100.00
80892;BME280;70343;51.530;5.050;2024-02-23T09:29:50;98954.34;;;6.45;100.00
80892;BME280;70343;51.530;5.050;2024-02-23T09:32:16;98962.06;;;6.51;100.00
80892;BME280;70343;51.530;5.050;2024-02-23T09:34:41;98956.72;;;6.46;100.00
80892;BME280;70343;51.530;5.050;2024-02-23T09:37:07;98962.81;;;6.58;100.00
80892;BME280;70343;51.530;5.050;2024-02-23T09:39:33;98962.22;;;6.56;100.00
80892;BME280;70343;51.530;5.050;2024-02-23T09:41:58;98946.84;;;6.61;100.00
80892;BME280;70343;51.530;5.050;2024-02-23T09:44:26;98950.00;;;6.70;100.00
80892;BME280;70343;51.530;5.050;2024-02-23T09:46:55;98964.84;;;6.81;100.00
80892;BME280;70343;51.530;5.050;2024-02-23T09:49:21;98962.44;;;7.10;100.00
80892;BME280;70343;51.530;5.050;2024-02-23T09:51:47;98955.69;;;7.09;100.00
80892;BME280;70343;51.530;5.050;2024-02-23T09:54:13;98958.34;;;7.46;100.00
80892;BME280;70343;51.530;5.050;2024-02-23T09:56:39;98958.50;;;7.51;100.00
80892;BME280;70343;51.530;5.050;2024-02-23T09:59:04;98956.97;;;7.43;100.00
80892;BME280;70343;51.530;5.050;2024-02-23T10:01:31;98959.94;;;7.47;100.00
80892;BME280;70343;51.530;5.050;2024-02-23T10:03:59;98959.19;;;7.40;100.00
80892;BME280;70343;51.530;5.050;2024-02-23T10:06:26;98974.44;;;7.54;100.00
80892;BME280;70343;51.530;5.050;2024-02-23T10:08:52;98952.44;;;7.39;100.00
80892;BME280;70343;51.530;5.050;2024-02-23T10:11:23;98978.94;;;7.41;100.00
80892;BME280;70343;51.530;5.050;2024-02-23T10:13:49;98965.69;;;7.31;100.00
80892;BME280;70343;51.530;5.050;2024-02-23T10:16:15;98987.25;;;7.25;100.00
80892;BME280;70343;51.530;5.050;2024-02-23T10:18:42;98986.25;;;7.26;100.00
80892;BME280;70343;51.530;5.050;2024-02-23T10:21:07;98991.44;;;7.26;100.00
80892;BME280;70343;51.530;5.050;2024-02-23T10:23:33;98986.22;;;7.07;100.00
80892;BME280;70343;51.530;5.050;2024-02-23T10:25:58;98993.59;;;7.29;100.00
80892;BME280;70343;51.530;5.050;2024-02-23T10:28:24;98999.06;;;7.20;100.00
80892;BME280;70343;51.530;5.050;2024-02-23T10:30:49;99006.56;;;7.29;100.00
80892;BME280;70343;51.530;5.050;2024-02-23T10:33:17;98991.22;;;7.52;100.00
80892;BME280;70343;51.530;5.050;2024-02-23T10:35:45;99003.00;;;7.48;100.00
80892;BME280;70343;51.530;5.050;2024-02-23T10:38:13;98988.66;;;7.70;100.00
80892;BME280;70343;51.530;5.050;2024-02-23T10:40:43;98990.88;;;7.66;100.00
80892;BME280;70343;51.530;5.050;2024-02-23T10:43:12;98996.44;;;7.70;100.00
80892;BME280;70343;51.530;5.050;2024-02-23T10:45:42;99001.91;;;7.98;100.00
80892;BME280;70343;51.530;5.050;2024-02-23T10:48:09;99005.66;;;8.02;100.00
80892;BME280;70343;51.530;5.050;2024-02-23T10:50:36;98996.84;;;8.39;100.00
80892;BME280;70343;51.530;5.050;2024-02-23T10:53:04;98994.81;;;8.59;100.00
80892;BME280;70343;51.530;5.050;2024-02-23T10:55:32;99001.94;;;8.64;100.00
80892;BME280;70343;51.530;5.050;2024-02-23T10:57:58;99000.06;;;8.82;100.00
80892;BME280;70343;51.530;5.050;2024-02-23T11:00:24;99000.59;;;9.14;100.00
80892;BME280;70343;51.530;5.050;2024-02-23T11:02:52;98986.91;;;9.19;100.00
80892;BME280;70343;51.530;5.050;2024-02-23T11:05:19;99026.03;;;8.71;100.00
80892;BME280;70343;51.530;5.050;2024-02-23T11:07:47;98995.06;;;8.69;100.00
80892;BME280;70343;51.530;5.050;2024-02-23T11:10:17;99000.31;;;8.51;100.00
80892;BME280;70343;51.530;5.050;2024-02-23T11:12:43;99004.75;;;8.62;100.00
80892;BME280;70343;51.530;5.050;2024-02-23T11:15:09;98999.38;;;8.75;100.00
80892;BME280;70343;51.530;5.050;2024-02-23T11:17:36;98989.91;;;8.51;100.00
80892;BME280;70343;51.530;5.050;2024-02-23T11:20:04;98999.38;;;8.75;100.00
80892;BME280;70343;51.530;5.050;2024-02-23T11:22:31;98999.25;;;8.70;100.00
80892;BME280;70343;51.530;5.050;2024-02-23T11:25:01;99005.06;;;8.95;100.00
80892;BME280;70343;51.530;5.050;2024-02-23T11:27:33;99007.19;;;9.28;100.00
80892;BME280;70343;51.530;5.050;2024-02-23T11:30:06;99025.56;;;9.15;100.00
80892;BME280;70343;51.530;5.050;2024-02-23T11:32:40;99015.28;;;9.09;100.00
80892;BME280;70343;51.530;5.050;2024-02-23T11:35:07;99028.28;;;8.67;100.00
80892;BME280;70343;51.530;5.050;2024-02-23T11:37:43;99029.91;;;8.91;100.00
80892;BME280;70343;51.530;5.050;2024-02-23T11:40:09;99017.13;;;8.78;100.00
80892;BME280;70343;51.530;5.050;2024-02-23T11:42:36;99013.81;;;9.01;100.00
80892;BME280;70343;51.530;5.050;2024-02-23T11:45:03;99023.22;;;9.14;100.00
80892;BME280;70343;51.530;5.050;2024-02-23T11:47:29;99036.78;;;9.16;100.00
80892;BME280;70343;51.530;5.050;2024-02-23T11:49:54;99025.38;;;9.17;100.00
80892;BME280;70343;51.530;5.050;2024-02-23T11:52:21;99031.25;;;8.82;100.00
80892;BME280;70343;51.530;5.050;2024-02-23T11:54:46;99044.25;;;9.24;100.00
80892;BME280;70343;51.530;5.050;2024-02-23T11:57:12;99030.19;;;9.02;100.00
80892;BME280;70343;51.530;5.050;2024-02-23T11:59:40;99026.19;;;8.87;100.00
80892;BME280;70343;51.530;5.050;2024-02-23T12:02:06;99040.50;;;8.78;100.00
80892;BME280;70343;51.530;5.050;2024-02-23T12:04:32;99026.97;;;8.88;100.00
80892;BME280;70343;51.530;5.050;2024-02-23T12:06:58;99037.41;;;8.70;100.00
80892;BME280;70343;51.530;5.050;2024-02-23T12:09:24;99028.81;;;8.58;100.00
80892;BME280;70343;51.530;5.050;2024-02-23T12:11:50;99031.44;;;8.69;100.00
80892;BME280;70343;51.530;5.050;2024-02-23T12:14:16;99024.50;;;8.81;100.00
80892;BME280;70343;51.530;5.050;2024-02-23T12:16:43;99028.00;;;8.87;100.00
80892;BME280;70343;51.530;5.050;2024-02-23T12:19:08;99032.75;;;8.60;100.00
80892;BME280;70343;51.530;5.050;2024-02-23T12:21:34;99031.75;;;8.61;100.00
80892;BME280;70343;51.530;5.050;2024-02-23T12:24:04;99034.63;;;8.71;100.00
80892;BME280;70343;51.530;5.050;2024-02-23T12:26:30;99035.84;;;8.69;100.00
80892;BME280;70343;51.530;5.050;2024-02-23T12:29:00;99033.03;;;8.70;100.00
80892;BME280;70343;51.530;5.050;2024-02-23T12:31:27;99046.06;;;8.52;100.00
80892;BME280;70343;51.530;5.050;2024-02-23T12:33:52;99053.13;;;8.45;100.00
80892;BME280;70343;51.530;5.050;2024-02-23T12:36:18;99048.50;;;8.47;100.00
80892;BME280;70343;51.530;5.050;2024-02-23T12:38:43;99049.44;;;8.53;100.00
80892;BME280;70343;51.530;5.050;2024-02-23T12:41:09;99046.59;;;8.54;100.00
80892;BME280;70343;51.530;5.050;2024-02-23T12:43:34;99056.28;;;8.65;100.00
80892;BME280;70343;51.530;5.050;2024-02-23T12:46:00;99050.19;;;8.42;100.00
80892;BME280;70343;51.530;5.050;2024-02-23T12:48:28;99055.56;;;8.58;100.00
80892;BME280;70343;51.530;5.050;2024-02-23T12:50:54;99057.44;;;8.51;100.00
80892;BME280;70343;51.530;5.050;2024-02-23T12:53:36;99069.56;;;8.57;100.00
80892;BME280;70343;51.530;5.050;2024-02-23T12:56:08;99068.53;;;8.76;100.00
80892;BME280;70343;51.530;5.050;2024-02-23T12:58:35;99065.81;;;8.71;100.00
80892;BME280;70343;51.530;5.050;2024-02-23T13:01:01;99070.03;;;8.84;100.00
80892;BME280;70343;51.530;5.050;2024-02-23T13:03:27;99058.66;;;8.96;100.00
80892;BME280;70343;51.530;5.050;2024-02-23T13:05:57;99065.44;;;8.97;100.00
80892;BME280;70343;51.530;5.050;2024-02-23T13:08:23;99066.22;;;8.98;100.00
80892;BME280;70343;51.530;5.050;2024-02-23T13:10:50;99062.00;;;9.27;100.00
80892;BME280;70343;51.530;5.050;2024-02-23T13:13:16;99055.84;;;9.51;100.00
80892;BME280;70343;51.530;5.050;2024-02-23T13:15:43;99050.41;;;9.52;100.00
80892;BME280;70343;51.530;5.050;2024-02-23T13:18:08;99051.41;;;9.40;100.00
80892;BME280;70343;51.530;5.050;2024-02-23T13:20:35;99063.72;;;9.33;100.00
80892;BME280;70343;51.530;5.050;2024-02-23T13:23:00;99063.84;;;9.26;100.00
80892;BME280;70343;51.530;5.050;2024-02-23T13:25:27;99058.13;;;9.06;100.00
80892;BME280;70343;51.530;5.050;2024-02-23T13:27:52;99056.00;;;9.15;100.00
80892;BME280;70343;51.530;5.050;2024-02-23T13:30:18;99051.13;;;9.07;100.00
80892;BME280;70343;51.530;5.050;2024-02-23T13:32:44;99065.28;;;9.11;100.00
80892;BME280;70343;51.530;5.050;2024-02-23T13:35:10;99066.63;;;9.25;100.00
80892;BME280;70343;51.530;5.050;2024-02-23T13:37:35;99067.03;;;9.40;100.00
80892;BME280;70343;51.530;5.050;2024-02-23T13:40:01;99066.88;;;9.35;100.00
80892;BME280;70343;51.530;5.050;2024-02-23T13:42:26;99063.59;;;9.28;100.00
80892;BME280;70343;51.530;5.050;2024-02-23T13:44:52;99052.16;;;9.29;100.00
80892;BME280;70343;51.530;5.050;2024-02-23T13:47:19;99052.53;;;9.32;100.00
80892;BME280;70343;51.530;5.050;2024-02-23T13:49:45;99050.16;;;9.31;100.00
80892;BME280;70343;51.530;5.050;2024-02-23T13:52:10;99050.72;;;9.33;100.00
80892;BME280;70343;51.530;5.050;2024-02-23T13:54:36;99056.81;;;9.27;100.00
80892;BME280;70343;51.530;5.050;2024-02-23T13:57:01;99050.56;;;9.05;100.00
80892;BME280;70343;51.530;5.050;2024-02-23T13:59:27;99058.13;;;9.06;100.00
80892;BME280;70343;51.530;5.050;2024-02-23T14:01:53;99056.09;;;9.08;100.00
80892;BME280;70343;51.530;5.050;2024-02-23T14:04:18;99065.44;;;8.97;100.00
80892;BME280;70343;51.530;5.050;2024-02-23T14:06:43;99066.50;;;8.78;100.00
80892;BME280;70343;51.530;5.050;2024-02-23T14:09:09;99079.38;;;8.37;100.00
80892;BME280;70343;51.530;5.050;2024-02-23T14:11:35;99083.72;;;8.43;100.00
80892;BME280;70343;51.530;5.050;2024-02-23T14:14:01;99090.22;;;8.09;100.00
80892;BME280;70343;51.530;5.050;2024-02-23T14:16:28;99069.91;;;8.06;100.00
80892;BME280;70343;51.530;5.050;2024-02-23T14:18:54;99082.56;;;8.39;100.00
80892;BME280;70343;51.530;5.050;2024-02-23T14:21:19;99073.78;;;8.40;100.00
80892;BME280;70343;51.530;5.050;2024-02-23T14:23:46;99072.63;;;8.36;100.00
80892;BME280;70343;51.530;5.050;2024-02-23T14:26:11;99072.91;;;8.28;100.00
80892;BME280;70343;51.530;5.050;2024-02-23T14:28:38;99074.34;;;8.42;100.00
80892;BME280;70343;51.530;5.050;2024-02-23T14:31:04;99071.53;;;8.44;100.00
80892;BME280;70343;51.530;5.050;2024-02-23T14:33:29;99069.44;;;8.34;100.00
80892;BME280;70343;51.530;5.050;2024-02-23T14:35:54;99060.06;;;8.33;100.00
80892;BME280;70343;51.530;5.050;2024-02-23T14:38:21;99069.50;;;8.46;100.00
80892;BME280;70343;51.530;5.050;2024-02-23T14:40:46;99065.06;;;8.35;100.00
80892;BME280;70343;51.530;5.050;2024-02-23T14:43:12;99068.22;;;8.37;100.00
80892;BME280;70343;51.530;5.050;2024-02-23T14:45:37;99072.25;;;8.33;100.00
80892;BME280;70343;51.530;5.050;2024-02-23T14:48:03;99070.88;;;8.48;100.00
80892;BME280;70343;51.530;5.050;2024-02-23T14:50:29;99072.75;;;8.41;100.00
80892;BME280;70343;51.530;5.050;2024-02-23T14:52:54;99073.25;;;8.50;100.00
80892;BME280;70343;51.530;5.050;2024-02-23T14:55:20;99075.19;;;8.54;100.00
80892;BME280;70343;51.530;5.050;2024-02-23T14:57:46;99080.75;;;8.58;100.00
80892;BME280;70343;51.530;5.050;2024-02-23T15:00:13;99074.31;;;8.60;100.00
80892;BME280;70343;51.530;5.050;2024-02-23T15:02:38;99073.25;;;8.68;100.00
80892;BME280;70343;51.530;5.050;2024-02-23T15:05:07;99073.94;;;8.75;100.00
80892;BME280;70343;51.530;5.050;2024-02-23T15:07:33;99076.63;;;8.68;100.00
80892;BME280;70343;51.530;5.050;2024-02-23T15:09:59;99079.56;;;8.72;100.00
80892;BME280;70343;51.530;5.050;2024-02-23T15:12:26;99081.69;;;8.63;100.00
80892;BME280;70343;51.530;5.050;2024-02-23T15:14:54;99078.22;;;8.69;100.00
80892;BME280;70343;51.530;5.050;2024-02-23T15:17:19;99081.13;;;8.61;100.00
80892;BME280;70343;51.530;5.050;2024-02-23T15:19:45;99085.50;;;8.61;100.00
80892;BME280;70343;51.530;5.050;2024-02-23T15:22:10;99082.88;;;8.79;100.00
80892;BME280;70343;51.530;5.050;2024-02-23T15:24:41;99085.25;;;8.80;100.00
80892;BME280;70343;51.530;5.050;2024-02-23T15:27:10;99087.44;;;8.83;100.00
80892;BME280;70343;51.530;5.050;2024-02-23T15:29:36;99081.91;;;8.91;100.00
80892;BME280;70343;51.530;5.050;2024-02-23T15:32:01;99082.09;;;8.78;100.00
80892;BME280;70343;51.530;5.050;2024-02-23T15:34:27;99089.31;;;8.76;100.00
80892;BME280;70343;51.530;5.050;2024-02-23T15:36:53;99076.03;;;8.66;100.00
80892;BME280;70343;51.530;5.050;2024-02-23T15:39:19;99078.22;;;8.69;100.00
80892;BME280;70343;51.530;5.050;2024-02-23T15:41:44;99082.16;;;8.72;100.00
80892;BME280;70343;51.530;5.050;2024-02-23T15:44:10;99079.94;;;8.75;100.00
80892;BME280;70343;51.530;5.050;2024-02-23T15:46:36;99081.13;;;8.61;100.00
80892;BME280;70343;51.530;5.050;2024-02-23T15:49:01;99077.41;;;8.69;100.00
80892;BME280;70343;51.530;5.050;2024-02-23T15:51:27;99084.72;;;8.60;100.00
80892;BME280;70343;51.530;5.050;2024-02-23T15:53:53;99084.13;;;8.58;100.00
80892;BME280;70343;51.530;5.050;2024-02-23T15:56:20;99086.47;;;8.48;100.00
80892;BME280;70343;51.530;5.050;2024-02-23T15:58:45;99099.75;;;8.40;100.00
80892;BME280;70343;51.530;5.050;2024-02-23T16:01:11;99092.03;;;8.34;100.00
80892;BME280;70343;51.530;5.050;2024-02-23T16:03:36;99091.16;;;8.40;100.00
80892;BME280;70343;51.530;5.050;2024-02-23T16:06:02;99083.81;;;8.37;100.00
80892;BME280;70343;51.530;5.050;2024-02-23T16:08:44;99084.22;;;8.34;100.00
80892;BME280;70343;51.530;5.050;2024-02-23T16:11:11;99081.84;;;8.32;100.00
80892;BME280;70343;51.530;5.050;2024-02-23T16:13:37;99080.84;;;8.33;100.00
80892;BME280;70343;51.530;5.050;2024-02-23T16:16:08;99088.63;;;8.33;100.00
80892;BME280;70343;51.530;5.050;2024-02-23T16:18:34;99084.69;;;8.24;100.00
80892;BME280;70343;51.530;5.050;2024-02-23T16:21:00;99094.09;;;8.25;100.00
80892;BME280;70343;51.530;5.050;2024-02-23T16:23:26;99089.91;;;8.24;100.00
80892;BME280;70343;51.530;5.050;2024-02-23T16:25:52;99096.50;;;8.27;100.00
80892;BME280;70343;51.530;5.050;2024-02-23T16:28:18;99100.56;;;8.16;100.00
80892;BME280;70343;51.530;5.050;2024-02-23T16:30:44;99101.50;;;8.22;100.00
80892;BME280;70343;51.530;5.050;2024-02-23T16:33:09;99110.31;;;8.21;100.00
80892;BME280;70343;51.530;5.050;2024-02-23T16:35:35;99107.50;;;8.22;100.00
80892;BME280;70343;51.530;5.050;2024-02-23T16:38:01;99116.13;;;8.16;100.00
80892;BME280;70343;51.530;5.050;2024-02-23T16:40:26;99123.50;;;8.19;100.00
80892;BME280;70343;51.530;5.050;2024-02-23T16:42:55;99113.44;;;8.04;100.00
80892;BME280;70343;51.530;5.050;2024-02-23T16:45:21;99121.50;;;7.96;100.00
80892;BME280;70343;51.530;5.050;2024-02-23T16:47:47;99115.97;;;7.93;100.00
80892;BME280;70343;51.530;5.050;2024-02-23T16:50:12;99114.94;;;7.94;100.00
80892;BME280;70343;51.530;5.050;2024-02-23T16:52:39;99117.25;;;7.84;100.00
80892;BME280;70343;51.530;5.050;2024-02-23T16:55:06;99120.19;;;7.87;100.00
80892;BME280;70343;51.530;5.050;2024-02-23T16:57:31;99126.03;;;7.83;100.00
80892;BME280;70343;51.530;5.050;2024-02-23T16:59:57;99139.00;;;7.83;100.00
80892;BME280;70343;51.530;5.050;2024-02-23T17:02:22;99132.13;;;7.70;100.00
80892;BME280;70343;51.530;5.050;2024-02-23T17:04:48;99139.50;;;7.67;100.00
80892;BME280;70343;51.530;5.050;2024-02-23T17:07:13;99148.31;;;7.66;100.00
80892;BME280;70343;51.530;5.050;2024-02-23T17:09:38;99154.66;;;7.70;100.00
80892;BME280;70343;51.530;5.050;2024-02-23T17:12:04;99151.13;;;7.64;100.00
80892;BME280;70343;51.530;5.050;2024-02-23T17:14:30;99158.00;;;7.52;100.00
80892;BME280;70343;51.530;5.050;2024-02-23T17:16:56;99154.25;;;7.42;100.00
80892;BME280;70343;51.530;5.050;2024-02-23T17:19:21;99148.53;;;7.33;100.00
80892;BME280;70343;51.530;5.050;2024-02-23T17:21:48;99155.16;;;7.22;100.00
80892;BME280;70343;51.530;5.050;2024-02-23T17:24:13;99172.31;;;7.24;100.00
80892;BME280;70343;51.530;5.050;2024-02-23T17:26:39;99177.75;;;7.09;100.00
80892;BME280;70343;51.530;5.050;2024-02-23T17:29:04;99177.75;;;7.09;100.00
80892;BME280;70343;51.530;5.050;2024-02-23T17:31:32;99176.00;;;7.03;100.00
80892;BME280;70343;51.530;5.050;2024-02-23T17:33:58;99178.59;;;6.96;100.00
80892;BME280;70343;51.530;5.050;2024-02-23T17:36:23;99185.59;;;6.96;100.00
80892;BME280;70343;51.530;5.050;2024-02-23T17:38:49;99195.03;;;6.77;100.00
80892;BME280;70343;51.530;5.050;2024-02-23T17:41:14;99195.66;;;6.73;100.00
80892;BME280;70343;51.530;5.050;2024-02-23T17:43:40;99185.13;;;6.48;100.00
80892;BME280;70343;51.530;5.050;2024-02-23T17:46:05;99187.34;;;6.38;100.00
80892;BME280;70343;51.530;5.050;2024-02-23T17:48:33;99181.56;;;6.36;100.00
80892;BME280;70343;51.530;5.050;2024-02-23T17:50:58;99175.59;;;6.42;100.00
80892;BME280;70343;51.530;5.050;2024-02-23T17:53:24;99183.78;;;6.39;100.00
80892;BME280;70343;51.530;5.050;2024-02-23T17:55:49;99181.19;;;6.32;100.00
80892;BME280;70343;51.530;5.050;2024-02-23T17:58:19;99187.53;;;6.43;100.00
80892;BME280;70343;51.530;5.050;2024-02-23T18:00:44;99185.56;;;6.32;100.00
80892;BME280;70343;51.530;5.050;2024-02-23T18:03:10;99179.19;;;6.35;100.00
80892;BME280;70343;51.530;5.050;2024-02-23T18:05:35;99191.16;;;6.29;100.00
80892;BME280;70343;51.530;5.050;2024-02-23T18:08:01;99191.34;;;6.27;100.00
80892;BME280;70343;51.530;5.050;2024-02-23T18:10:27;99191.56;;;6.26;100.00
80892;BME280;70343;51.530;5.050;2024-02-23T18:12:52;99189.53;;;6.28;100.00
80892;BME280;70343;51.530;5.050;2024-02-23T18:15:18;99188.16;;;6.25;100.00
80892;BME280;70343;51.530;5.050;2024-02-23T18:17:43;99184.59;;;6.20;100.00
80892;BME280;70343;51.530;5.050;2024-02-23T18:20:10;99189.94;;;6.25;100.00
80892;BME280;70343;51.530;5.050;2024-02-23T18:22:36;99176.41;;;6.23;100.00
80892;BME280;70343;51.530;5.050;2024-02-23T18:25:01;99187.97;;;6.34;100.00
80892;BME280;70343;51.530;5.050;2024-02-23T18:27:27;99187.53;;;6.30;100.00
80892;BME280;70343;51.530;5.050;2024-02-23T18:29:52;99187.75;;;6.35;100.00
80892;BME280;70343;51.530;5.050;2024-02-23T18:32:18;99179.19;;;6.35;100.00
80892;BME280;70343;51.530;5.050;2024-02-23T18:34:44;99178.16;;;6.42;100.00
80892;BME280;70343;51.530;5.050;2024-02-23T18:37:09;99182.16;;;6.45;100.00
80892;BME280;70343;51.530;5.050;2024-02-23T18:39:35;99172.00;;;6.43;100.00
80892;BME280;70343;51.530;5.050;2024-02-23T18:42:01;99174.78;;;6.48;100.00
80892;BME280;70343;51.530;5.050;2024-02-23T18:44:27;99182.53;;;6.48;100.00
80892;BME280;70343;51.530;5.050;2024-02-23T18:46:52;99172.41;;;6.47;100.00
80892;BME280;70343;51.530;5.050;2024-02-23T18:49:18;99173.97;;;6.48;100.00
80892;BME280;70343;51.530;5.050;2024-02-23T18:51:43;99172.41;;;6.53;100.00
80892;BME280;70343;51.530;5.050;2024-02-23T18:54:10;99166.78;;;6.56;100.00
80892;BME280;70343;51.530;5.050;2024-02-23T18:56:36;99178.34;;;6.54;100.00
80892;BME280;70343;51.530;5.050;2024-02-23T18:59:01;99181.16;;;6.52;100.00
80892;BME280;70343;51.530;5.050;2024-02-23T19:01:27;99176.78;;;6.53;100.00
80892;BME280;70343;51.530;5.050;2024-02-23T19:03:52;99184.75;;;6.51;100.00
80892;BME280;70343;51.530;5.050;2024-02-23T19:06:18;99181.94;;;6.53;100.00
80892;BME280;70343;51.530;5.050;2024-02-23T19:08:43;99179.56;;;6.51;100.00
80892;BME280;70343;51.530;5.050;2024-02-23T19:11:08;99178.56;;;6.52;100.00
80892;BME280;70343;51.530;5.050;2024-02-23T19:13:34;99177.97;;;6.50;100.00
80892;BME280;70343;51.530;5.050;2024-02-23T19:15:59;99184.94;;;6.50;100.00
80892;BME280;70343;51.530;5.050;2024-02-23T19:18:25;99189.94;;;6.51;100.00
80892;BME280;70343;51.530;5.050;2024-02-23T19:20:51;99186.75;;;6.43;100.00
80892;BME280;70343;51.530;5.050;2024-02-23T19:23:16;99186.34;;;6.39;100.00
80892;BME280;70343;51.530;5.050;2024-02-23T19:25:43;99193.13;;;6.34;100.00
80892;BME280;70343;51.530;5.050;2024-02-23T19:28:08;99193.91;;;6.34;100.00
80892;BME280;70343;51.530;5.050;2024-02-23T19:30:34;99198.69;;;6.30;100.00
80892;BME280;70343;51.530;5.050;2024-02-23T19:33:00;99205.88;;;6.35;100.00
80892;BME280;70343;51.530;5.050;2024-02-23T19:35:25;99206.47;;;6.37;100.00
80892;BME280;70343;51.530;5.050;2024-02-23T19:37:51;99206.66;;;6.42;100.00
80892;BME280;70343;51.530;5.050;2024-02-23T19:40:16;99207.44;;;6.49;100.00
80892;BME280;70343;51.530;5.050;2024-02-23T19:42:48;99211.03;;;6.55;100.00
80892;BME280;70343;51.530;5.050;2024-02-23T19:45:14;99211.41;;;6.58;100.00
80892;BME280;70343;51.530;5.050;2024-02-23T19:47:39;99215.78;;;6.64;100.00
80892;BME280;70343;51.530;5.050;2024-02-23T19:50:05;99205.00;;;6.67;100.00
80892;BME280;70343;51.530;5.050;2024-02-23T19:52:31;99207.19;;;6.70;100.00
80892;BME280;70343;51.530;5.050;2024-02-23T19:54:57;99221.56;;;6.66;100.00
80892;BME280;70343;51.530;5.050;2024-02-23T19:57:23;99211.59;;;6.70;100.00
80892;BME280;70343;51.530;5.050;2024-02-23T19:59:48;99219.75;;;6.73;100.00
80892;BME280;70343;51.530;5.050;2024-02-23T20:02:14;99212.19;;;6.72;100.00
80892;BME280;70343;51.530;5.050;2024-02-23T20:04:40;99205.22;;;6.72;100.00
80892;BME280;70343;51.530;5.050;2024-02-23T20:07:06;99215.38;;;6.67;100.00
80892;BME280;70343;51.530;5.050;2024-02-23T20:09:39;99225.72;;;6.67;100.00
80892;BME280;70343;51.530;5.050;2024-02-23T20:12:05;99233.50;;;6.67;100.00
80892;BME280;70343;51.530;5.050;2024-02-23T20:14:31;99226.53;;;6.68;100.00
80892;BME280;70343;51.530;5.050;2024-02-23T20:16:57;99245.25;;;6.76;100.00
80892;BME280;70343;51.530;5.050;2024-02-23T20:19:23;99260.78;;;6.76;100.00
80892;BME280;70343;51.530;5.050;2024-02-23T20:21:48;99287.50;;;6.70;100.00
80892;BME280;70343;51.530;5.050;2024-02-23T20:24:13;99293.69;;;6.43;100.00
80892;BME280;70343;51.530;5.050;2024-02-23T20:26:39;99297.84;;;6.11;100.00
80892;BME280;70343;51.530;5.050;2024-02-23T20:29:06;99288.84;;;5.88;100.00
80892;BME280;70343;51.530;5.050;2024-02-23T20:31:33;99303.72;;;5.73;100.00
80892;BME280;70343;51.530;5.050;2024-02-23T20:34:02;99291.31;;;5.55;100.00
80892;BME280;70343;51.530;5.050;2024-02-23T20:36:27;99292.91;;;5.50;100.00